createdAt,value
2018-09-25T00:00:32.451Z,3.40
2018-09-25T00:01:31.404Z,3.20
2018-09-25T00:02:31.363Z,2.80
2018-09-25T00:03:31.330Z,2.80
2018-09-25T00:04:31.278Z,3.00
2018-09-25T00:05:31.252Z,3.60
2018-09-25T00:06:31.190Z,2.70
2018-09-25T00:07:31.170Z,3.70
2018-09-25T00:08:31.094Z,3.80
2018-09-25T00:09:31.093Z,3.50
2018-09-25T00:10:31.003Z,2.70
2018-09-25T00:11:30.970Z,3.30
2018-09-25T00:12:30.943Z,2.90
2018-09-25T00:13:31.826Z,2.70
2018-09-25T00:14:30.835Z,2.80
2018-09-25T00:15:31.421Z,2.80
2018-09-25T00:16:30.771Z,2.30
2018-09-25T00:17:30.714Z,2.40
2018-09-25T00:18:30.674Z,2.10
2018-09-25T00:19:31.326Z,2.30
2018-09-25T00:20:30.571Z,3.00
2018-09-25T00:21:30.551Z,2.80
2018-09-25T00:22:30.500Z,2.80
2018-09-25T00:23:30.443Z,3.20
2018-09-25T00:24:30.402Z,5.90
2018-09-25T00:25:30.360Z,5.70
2018-09-25T00:26:30.332Z,4.80
2018-09-25T00:27:30.273Z,3.00
2018-09-25T00:28:30.248Z,3.40
2018-09-25T00:29:30.190Z,9.20
2018-09-25T00:30:30.933Z,6.00
2018-09-25T00:31:30.099Z,3.90
2018-09-25T00:32:30.067Z,3.10
2018-09-25T00:33:30.828Z,5.10
2018-09-25T00:34:30.918Z,8.70
2018-09-25T00:35:29.929Z,3.00
2018-09-25T00:36:29.885Z,3.20
2018-09-25T00:37:29.835Z,3.20
2018-09-25T00:38:29.802Z,3.30
2018-09-25T00:39:29.788Z,3.20
2018-09-25T00:40:29.702Z,3.30
2018-09-25T00:41:29.677Z,3.90
2018-09-25T00:42:30.331Z,3.20
2018-09-25T00:43:29.588Z,3.10
2018-09-25T00:44:29.531Z,3.40
2018-09-25T00:45:29.497Z,3.10
2018-09-25T00:46:29.451Z,3.70
2018-09-25T00:47:29.407Z,3.00
2018-09-25T00:48:29.936Z,3.10
2018-09-25T00:49:30.840Z,3.00
2018-09-25T00:50:29.261Z,3.70
2018-09-25T00:51:29.833Z,3.50
2018-09-25T00:52:29.196Z,3.10
2018-09-25T00:53:29.146Z,3.60
2018-09-25T00:54:31.933Z,3.20
2018-09-25T00:55:29.941Z,3.20
2018-09-25T07:31:03.538Z,5.20
2018-09-25T07:32:03.388Z,5.00
2018-09-25T07:33:58.308Z,4.70
2018-09-25T07:34:57.919Z,5.00
2018-09-25T07:36:51.199Z,4.20
2018-09-25T07:37:50.793Z,4.30
2018-09-25T07:39:44.055Z,5.30
2018-09-25T07:40:43.759Z,4.50
2018-09-25T07:42:36.825Z,4.60
2018-09-25T07:43:36.710Z,4.20
2018-09-25T07:45:29.704Z,4.90
2018-09-25T07:46:29.658Z,4.40
2018-09-25T07:48:23.030Z,4.30
2018-09-25T07:49:22.629Z,4.50
2018-09-25T07:51:15.920Z,4.20
2018-09-25T07:52:15.567Z,4.00
2018-09-25T07:53:15.574Z,4.40
2018-09-25T07:54:15.547Z,4.60
2018-09-25T07:55:15.581Z,4.10
2018-09-25T07:56:15.411Z,3.60
2018-09-25T07:57:15.524Z,3.80
2018-09-25T07:58:15.402Z,3.80
2018-09-25T07:59:15.335Z,4.00
2018-09-25T08:00:15.313Z,4.20
2018-09-25T08:01:15.322Z,3.90
2018-09-25T08:02:15.234Z,3.90
2018-09-25T08:03:15.336Z,4.00
2018-09-25T08:04:15.168Z,3.90
2018-09-25T08:05:15.169Z,3.90
2018-09-25T08:06:15.095Z,3.90
2018-09-25T08:07:15.074Z,4.10
2018-09-25T08:08:15.018Z,3.50
2018-09-25T08:09:14.988Z,3.40
2018-09-25T08:10:14.920Z,3.40
2018-09-25T08:11:14.968Z,3.20
2018-09-25T08:12:14.965Z,4.00
2018-09-25T08:13:14.862Z,3.90
2018-09-25T08:14:15.183Z,3.20
2018-09-25T08:15:14.815Z,3.50
2018-09-25T08:16:14.708Z,3.50
2018-09-25T08:17:14.689Z,3.10
2018-09-25T08:18:15.425Z,3.00
2018-09-25T08:19:14.617Z,2.90
2018-09-25T08:20:14.574Z,3.10
2018-09-25T08:21:14.544Z,3.30
2018-09-25T08:22:14.514Z,3.80
2018-09-25T08:23:14.484Z,3.40
2018-09-25T08:24:14.434Z,3.00
2018-09-25T08:25:14.399Z,3.10
2018-09-25T08:26:14.346Z,3.50
2018-09-25T08:27:14.311Z,3.20
2018-09-25T08:28:14.331Z,3.10
2018-09-25T08:29:14.302Z,3.20
2018-09-25T08:30:14.232Z,3.10
2018-09-25T08:31:14.196Z,3.40
2018-09-25T08:32:14.179Z,3.60
2018-09-25T08:33:14.136Z,3.10
2018-09-25T08:34:14.089Z,3.80
2018-09-25T08:35:14.049Z,3.60
2018-09-25T08:36:14.022Z,3.10
2018-09-25T08:37:13.968Z,3.50
2018-09-25T08:38:13.954Z,3.20
2018-09-25T08:39:13.983Z,2.90
2018-09-25T08:40:13.861Z,3.10
2018-09-25T08:41:13.831Z,2.70
2018-09-25T08:42:13.802Z,3.40
2018-09-25T08:43:13.757Z,3.50
2018-09-25T08:44:13.746Z,3.10
2018-09-25T08:45:13.688Z,2.90
2018-09-25T08:46:13.662Z,2.80
2018-09-25T08:47:13.621Z,3.00
2018-09-25T08:48:13.582Z,2.80
2018-09-25T08:49:13.566Z,2.90
2018-09-25T08:50:13.549Z,2.60
2018-09-25T08:51:13.503Z,2.60
2018-09-25T08:52:13.466Z,2.80
2018-09-25T08:53:13.423Z,2.70
2018-09-25T08:54:13.392Z,3.00
2018-09-25T08:55:13.358Z,2.70
2018-09-25T08:56:13.341Z,2.50
2018-09-25T08:57:13.320Z,2.50
2018-09-25T08:58:13.276Z,2.60
2018-09-25T08:59:13.238Z,2.80
2018-09-25T09:00:13.215Z,2.40
2018-09-25T09:01:13.165Z,2.80
2018-09-25T09:02:13.141Z,2.50
2018-09-25T09:03:13.100Z,2.50
2018-09-25T09:04:13.062Z,2.80
2018-09-25T09:05:13.047Z,2.80
2018-09-25T09:06:13.069Z,2.90
2018-09-25T09:07:12.990Z,3.00
2018-09-25T09:08:13.004Z,2.30
2018-09-25T09:09:12.912Z,2.20
2018-09-25T09:10:12.908Z,2.60
2018-09-25T09:11:12.849Z,2.80
2018-09-25T09:12:12.832Z,2.40
2018-09-25T09:13:12.961Z,2.50
2018-09-25T09:14:12.789Z,2.20
2018-09-25T09:15:12.735Z,2.50
2018-09-25T09:16:12.708Z,2.30
2018-09-25T09:17:12.693Z,2.40
2018-09-25T09:18:12.643Z,2.20
2018-09-25T09:19:12.634Z,2.70
2018-09-25T09:20:12.778Z,2.60
2018-09-25T09:21:12.583Z,2.50
2018-09-25T09:22:12.609Z,2.70
2018-09-25T09:23:12.525Z,2.40
2018-09-25T09:24:12.476Z,2.50
2018-09-25T09:25:12.512Z,2.50
2018-09-25T09:26:12.455Z,2.40
2018-09-25T09:27:12.393Z,2.30
2018-09-25T09:28:12.370Z,2.30
2018-09-25T09:29:12.365Z,2.60
2018-09-25T09:30:12.319Z,2.20
2018-09-25T09:31:12.291Z,2.20
2018-09-25T09:32:12.279Z,2.10
2018-09-25T09:33:12.230Z,2.00
2018-09-25T09:34:12.218Z,2.10
2018-09-25T09:35:12.169Z,2.50
2018-09-25T09:36:12.158Z,2.10
2018-09-25T09:37:12.132Z,2.20
2018-09-25T09:38:12.113Z,2.40
2018-09-25T09:39:12.100Z,2.00
2018-09-25T09:40:12.096Z,2.30
2018-09-25T09:41:12.119Z,2.30
2018-09-25T09:42:11.992Z,2.10
2018-09-25T09:43:11.957Z,2.00
2018-09-25T09:44:11.937Z,2.30
2018-09-25T09:45:11.904Z,2.20
2018-09-25T09:46:11.887Z,2.10
2018-09-25T09:47:11.858Z,1.90
2018-09-25T09:48:11.843Z,2.50
2018-09-25T09:49:11.787Z,2.30
2018-09-25T09:50:11.761Z,2.10
2018-09-25T09:51:11.713Z,2.00
2018-09-25T09:52:11.705Z,2.20
2018-09-25T09:53:11.652Z,2.10
2018-09-25T09:54:11.613Z,2.00
2018-09-25T09:55:11.601Z,2.20
2018-09-25T09:56:11.575Z,1.60
2018-09-25T09:57:11.523Z,1.80
2018-09-25T09:58:11.502Z,2.10
2018-09-25T09:59:11.483Z,2.20
2018-09-25T10:00:11.446Z,2.10
2018-09-25T10:01:11.398Z,2.10
2018-09-25T10:02:11.369Z,2.00
2018-09-25T10:03:11.330Z,2.20
2018-09-25T10:04:11.296Z,2.20
2018-09-25T10:05:11.274Z,2.10
2018-09-25T10:06:11.255Z,1.90
2018-09-25T10:07:11.258Z,2.00
2018-09-25T10:08:11.205Z,2.10
2018-09-25T10:09:11.147Z,1.90
2018-09-25T10:10:11.125Z,1.80
2018-09-25T10:11:11.092Z,1.80
2018-09-25T10:12:11.064Z,1.40
2018-09-25T10:13:11.298Z,1.90
2018-09-25T10:14:10.996Z,1.70
2018-09-25T10:15:11.032Z,1.90
2018-09-25T10:16:10.934Z,2.10
2018-09-25T10:17:10.899Z,2.10
2018-09-25T10:18:10.920Z,1.80
2018-09-25T10:19:10.855Z,1.90
2018-09-25T10:20:10.801Z,2.30
2018-09-25T10:21:10.790Z,1.70
2018-09-25T10:22:10.732Z,1.70
2018-09-25T10:23:10.724Z,1.70
2018-09-25T10:24:10.718Z,1.70
2018-09-25T10:25:10.647Z,1.70
2018-09-25T10:26:10.621Z,1.80
2018-09-25T10:27:10.624Z,1.90
2018-09-25T10:28:10.571Z,2.00
2018-09-25T10:29:10.532Z,1.70
2018-09-25T10:30:10.498Z,1.70
2018-09-25T10:31:10.469Z,1.90
2018-09-25T10:32:10.430Z,1.90
2018-09-25T10:33:10.392Z,1.60
2018-09-25T10:34:10.548Z,1.70
2018-09-25T10:35:10.343Z,1.70
2018-09-25T10:36:10.355Z,1.70
2018-09-25T10:37:10.336Z,1.60
2018-09-25T10:38:10.299Z,1.80
2018-09-25T10:39:10.232Z,1.80
2018-09-25T10:40:10.251Z,1.80
2018-09-25T10:41:10.178Z,1.60
2018-09-25T10:42:10.238Z,1.60
2018-09-25T10:43:10.113Z,2.00
2018-09-25T10:44:10.090Z,1.70
2018-09-25T10:45:10.077Z,1.80
2018-09-25T10:46:10.041Z,1.60
2018-09-25T10:47:09.975Z,1.90
2018-09-25T10:48:09.976Z,1.50
2018-09-25T10:49:09.930Z,1.60
2018-09-25T10:50:09.915Z,1.70
2018-09-25T10:51:09.876Z,1.70
2018-09-25T10:52:09.831Z,1.50
2018-09-25T10:53:09.802Z,1.40
2018-09-25T10:54:09.797Z,1.80
2018-09-25T10:55:09.755Z,1.80
2018-09-25T10:56:09.796Z,1.90
2018-09-25T10:57:09.700Z,2.20
2018-09-25T10:58:09.660Z,1.70
2018-09-25T10:59:09.624Z,2.20
2018-09-25T11:00:09.577Z,2.20
2018-09-25T11:01:09.551Z,1.90
2018-09-25T11:02:09.521Z,1.80
2018-09-25T11:03:09.575Z,1.80
2018-09-25T11:04:09.479Z,1.90
2018-09-25T11:05:09.454Z,1.80
2018-09-25T11:06:09.413Z,1.90
2018-09-25T11:07:09.408Z,1.40
2018-09-25T11:08:09.357Z,1.90
2018-09-25T11:09:09.330Z,1.60
2018-09-25T11:10:09.436Z,1.80
2018-09-25T11:11:09.282Z,2.00
2018-09-25T11:12:09.241Z,1.80
2018-09-25T11:13:09.210Z,2.00
2018-09-25T11:14:09.172Z,1.80
2018-09-25T11:15:09.148Z,1.70
2018-09-25T11:16:09.140Z,1.60
2018-09-25T11:17:09.099Z,1.90
2018-09-25T11:18:09.078Z,1.70
2018-09-25T11:19:09.042Z,1.80
2018-09-25T11:20:09.032Z,1.60
2018-09-25T11:21:09.067Z,1.70
2018-09-25T11:22:09.043Z,1.80
2018-09-25T11:23:08.926Z,1.80
2018-09-25T11:24:09.078Z,1.80
2018-09-25T11:25:08.915Z,2.00
2018-09-25T11:26:08.870Z,1.70
2018-09-25T11:27:08.879Z,1.90
2018-09-25T11:28:08.793Z,1.30
2018-09-25T11:29:08.766Z,1.70
2018-09-25T11:30:08.731Z,2.00
2018-09-25T11:31:08.712Z,2.10
2018-09-25T11:32:08.752Z,1.80
2018-09-25T11:33:08.663Z,1.80
2018-09-25T11:34:08.624Z,2.20
2018-09-25T11:35:08.618Z,1.80
2018-09-25T11:36:08.571Z,2.10
2018-09-25T11:37:08.566Z,2.00
2018-09-25T11:38:08.523Z,1.70
2018-09-25T11:39:08.501Z,1.90
2018-09-25T11:40:08.469Z,1.60
2018-09-25T11:41:08.500Z,1.90
2018-09-25T11:42:08.416Z,1.70
2018-09-25T11:43:08.403Z,1.50
2018-09-25T11:44:08.413Z,1.90
2018-09-25T11:45:08.340Z,1.70
2018-09-25T11:46:08.302Z,1.90
2018-09-25T11:47:08.346Z,1.80
2018-09-25T11:48:08.265Z,1.90
2018-09-25T11:49:08.245Z,2.20
2018-09-25T11:50:08.192Z,1.60
2018-09-25T11:51:08.172Z,1.80
2018-09-25T11:52:08.145Z,1.70
2018-09-25T11:53:08.115Z,2.00
2018-09-25T11:54:08.104Z,1.80
2018-09-25T11:55:08.053Z,1.70
2018-09-25T11:56:08.043Z,1.60
2018-09-25T11:57:08.008Z,1.90
2018-09-25T11:58:07.970Z,2.00
2018-09-25T11:59:07.930Z,1.70
2018-09-25T12:00:07.914Z,1.50
2018-09-25T12:01:07.901Z,1.90
2018-09-25T12:02:07.865Z,1.60
2018-09-25T12:03:07.828Z,2.00
2018-09-25T12:04:07.910Z,1.90
2018-09-25T12:05:07.774Z,1.60
2018-09-25T12:06:07.732Z,2.40
2018-09-25T12:07:07.705Z,1.90
2018-09-25T12:08:07.687Z,1.60
2018-09-25T12:09:07.656Z,1.80
2018-09-25T12:10:07.628Z,2.00
2018-09-25T12:11:07.597Z,1.90
2018-09-25T12:12:07.557Z,1.80
2018-09-25T12:13:07.541Z,1.60
2018-09-25T12:14:07.491Z,1.40
2018-09-25T12:15:07.487Z,1.60
2018-09-25T12:16:07.429Z,1.50
2018-09-25T12:17:07.434Z,1.60
2018-09-25T12:18:07.368Z,1.90
2018-09-25T12:19:07.340Z,1.90
2018-09-25T12:20:07.327Z,1.80
2018-09-25T12:21:07.284Z,1.60
2018-09-25T12:22:07.259Z,1.30
2018-09-25T12:23:07.215Z,1.70
2018-09-25T12:24:07.218Z,1.60
2018-09-25T12:25:07.152Z,1.80
2018-09-25T12:26:07.122Z,1.70
2018-09-25T12:27:07.083Z,1.70
2018-09-25T12:28:07.069Z,1.60
2018-09-25T12:29:07.024Z,1.70
2018-09-25T12:30:07.027Z,1.90
2018-09-25T12:31:06.965Z,1.80
2018-09-25T12:32:06.930Z,1.90
2018-09-25T12:33:07.005Z,2.00
2018-09-25T12:34:06.862Z,1.80
2018-09-25T12:35:06.834Z,1.60
2018-09-25T12:36:06.820Z,1.80
2018-09-25T12:37:06.765Z,1.90
2018-09-25T12:38:06.760Z,1.60
2018-09-25T12:39:06.727Z,1.80
2018-09-25T12:40:06.693Z,1.80
2018-09-25T12:41:06.773Z,2.10
2018-09-25T12:42:06.637Z,1.80
2018-09-25T12:43:06.591Z,1.60
2018-09-25T12:44:06.557Z,1.60
2018-09-25T12:45:06.529Z,1.70
2018-09-25T12:46:06.494Z,1.60
2018-09-25T12:47:06.488Z,1.70
2018-09-25T12:48:06.438Z,2.00
2018-09-25T12:49:06.414Z,1.80
2018-09-25T12:50:06.379Z,1.90
2018-09-25T12:51:06.330Z,1.80
2018-09-25T12:52:06.309Z,1.80
2018-09-25T12:53:06.293Z,1.70
2018-09-25T12:54:06.249Z,1.60
2018-09-25T12:55:06.242Z,1.70
2018-09-25T12:56:06.229Z,1.70
2018-09-25T12:57:06.168Z,1.80
2018-09-25T12:58:06.124Z,2.20
2018-09-25T12:59:06.098Z,1.70
2018-09-25T13:00:06.077Z,1.40
2018-09-25T13:01:06.048Z,1.80
2018-09-25T13:02:06.027Z,1.70
2018-09-25T13:03:06.011Z,1.70
2018-09-25T13:04:06.033Z,2.00
2018-09-25T13:05:05.925Z,1.70
2018-09-25T13:06:05.896Z,1.90
2018-09-25T13:07:06.073Z,1.90
2018-09-25T13:08:05.854Z,1.80
2018-09-25T13:09:05.853Z,1.80
2018-09-25T13:10:05.815Z,2.00
2018-09-25T13:11:05.755Z,2.30
2018-09-25T13:12:05.741Z,1.90
2018-09-25T13:13:05.742Z,1.80
2018-09-25T13:14:05.718Z,1.50
2018-09-25T13:15:05.660Z,1.80
2018-09-25T13:16:05.738Z,1.70
2018-09-25T13:17:05.595Z,2.00
2018-09-25T13:18:05.553Z,1.40
2018-09-25T13:19:05.508Z,1.30
2018-09-25T13:20:05.487Z,1.50
2018-09-25T13:21:05.471Z,1.70
2018-09-25T13:22:05.435Z,1.70
2018-09-25T13:23:05.410Z,1.60
2018-09-25T13:24:05.472Z,1.60
2018-09-25T13:25:05.345Z,1.60
2018-09-25T13:26:05.384Z,1.70
2018-09-25T13:27:05.268Z,1.50
2018-09-25T13:28:05.320Z,1.40
2018-09-25T13:29:05.237Z,1.50
2018-09-25T13:30:05.188Z,1.60
2018-09-25T13:31:05.186Z,1.80
2018-09-25T13:32:05.162Z,1.40
2018-09-25T13:33:05.073Z,1.80
2018-09-25T13:34:05.077Z,2.30
2018-09-25T13:35:05.016Z,2.10
2018-09-25T13:36:04.997Z,1.70
2018-09-25T13:37:05.001Z,1.70
2018-09-25T13:38:04.944Z,1.40
2018-09-25T13:39:04.905Z,1.60
2018-09-25T13:40:04.907Z,1.50
2018-09-25T13:41:04.820Z,1.50
2018-09-25T13:42:04.828Z,1.20
2018-09-25T13:43:04.784Z,1.20
2018-09-25T13:44:04.788Z,1.60
2018-09-25T13:45:04.706Z,1.80
2018-09-25T13:46:04.679Z,1.40
2018-09-25T13:47:04.639Z,1.80
2018-09-25T13:48:04.607Z,1.50
2018-09-25T13:49:04.579Z,1.90
2018-09-25T13:50:04.573Z,1.50
2018-09-25T13:51:04.575Z,1.50
2018-09-25T13:52:05.059Z,1.70
2018-09-25T13:53:04.455Z,1.70
2018-09-25T13:54:04.456Z,1.90
2018-09-25T13:55:04.421Z,1.90
2018-09-25T13:56:04.389Z,1.70
2018-09-25T13:57:04.370Z,1.70
2018-09-25T13:58:04.309Z,1.40
2018-09-25T13:59:04.270Z,1.70
2018-09-25T14:00:04.261Z,1.60
2018-09-25T14:01:04.229Z,1.70
2018-09-25T14:02:04.208Z,1.70
2018-09-25T14:03:04.148Z,1.60
2018-09-25T14:04:04.114Z,1.80
2018-09-25T14:05:04.084Z,1.60
2018-09-25T14:06:04.145Z,1.80
2018-09-25T14:07:04.002Z,1.60
2018-09-25T14:08:03.987Z,1.70
2018-09-25T14:09:03.954Z,1.80
2018-09-25T14:10:03.979Z,1.60
2018-09-25T14:11:03.885Z,1.60
2018-09-25T14:12:03.858Z,1.70
2018-09-25T14:13:03.862Z,1.60
2018-09-25T14:14:03.780Z,1.90
2018-09-25T14:15:03.778Z,1.60
2018-09-25T14:16:03.722Z,1.70
2018-09-25T14:17:03.695Z,1.80
2018-09-25T14:18:03.670Z,1.90
2018-09-25T14:19:03.633Z,1.80
2018-09-25T14:20:03.606Z,1.50
2018-09-25T14:21:03.546Z,1.50
2018-09-25T14:22:03.581Z,1.60
2018-09-25T14:23:03.477Z,1.60
2018-09-25T14:24:03.444Z,1.40
2018-09-25T14:25:03.434Z,1.60
2018-09-25T14:26:03.373Z,1.90
2018-09-25T14:27:03.363Z,1.70
2018-09-25T14:28:03.322Z,1.70
2018-09-25T14:29:03.280Z,2.00
2018-09-25T14:30:03.329Z,2.00
2018-09-25T14:31:03.212Z,1.30
2018-09-25T14:32:03.182Z,1.40
2018-09-25T14:33:03.157Z,1.90
2018-09-25T14:34:03.112Z,1.70
2018-09-25T14:35:03.087Z,1.50
2018-09-25T14:36:03.061Z,1.80
2018-09-25T14:37:02.995Z,1.40
2018-09-25T14:38:02.960Z,1.50
2018-09-25T14:39:02.943Z,1.60
2018-09-25T14:40:02.905Z,1.50
2018-09-25T14:41:02.863Z,1.80
2018-09-25T14:42:02.870Z,1.50
2018-09-25T14:43:02.797Z,1.50
2018-09-25T14:44:02.789Z,1.50
2018-09-25T14:45:02.747Z,1.50
2018-09-25T14:46:02.692Z,1.20
2018-09-25T14:47:02.677Z,1.80
2018-09-25T14:48:02.641Z,1.60
2018-09-25T14:49:02.611Z,1.50
2018-09-25T14:50:02.556Z,1.80
2018-09-25T14:51:02.566Z,1.90
2018-09-25T14:52:02.457Z,1.70
2018-09-25T14:53:02.451Z,1.50
2018-09-25T14:54:02.508Z,1.70
2018-09-25T14:55:02.398Z,1.40
2018-09-25T14:56:02.332Z,1.50
2018-09-25T14:57:02.316Z,1.60
2018-09-25T14:58:02.256Z,1.60
2018-09-25T14:59:02.210Z,1.60
2018-09-25T15:00:02.169Z,1.50
2018-09-25T15:01:02.140Z,1.40
2018-09-25T15:02:02.098Z,1.30
2018-09-25T15:03:02.057Z,1.30
2018-09-25T15:04:04.080Z,1.30
2018-09-25T15:05:01.971Z,1.50
2018-09-25T15:06:01.947Z,1.80
2018-09-25T15:07:01.929Z,1.40
2018-09-25T15:08:01.868Z,1.70
2018-09-25T15:09:01.833Z,1.50
2018-09-25T15:10:01.796Z,1.40
2018-09-25T15:11:01.740Z,1.60
2018-09-25T15:12:01.713Z,1.50
2018-09-25T15:13:01.681Z,1.70
2018-09-25T15:14:01.648Z,1.80
2018-09-25T15:15:01.629Z,1.50
2018-09-25T15:16:01.576Z,1.40
2018-09-25T15:17:01.544Z,1.50
2018-09-25T15:18:01.525Z,1.40
2018-09-25T15:19:01.455Z,1.40
2018-09-25T15:20:01.431Z,1.40
2018-09-25T15:21:01.421Z,1.50
2018-09-25T15:22:01.537Z,1.60
2018-09-25T15:23:01.308Z,1.60
2018-09-25T15:24:01.261Z,1.50
2018-09-25T15:25:01.233Z,1.70
2018-09-25T15:26:01.180Z,1.30
2018-09-25T15:27:01.140Z,1.70
2018-09-25T15:28:01.091Z,1.70
2018-09-25T15:29:01.048Z,1.80
2018-09-25T15:30:01.024Z,1.50
2018-09-25T15:31:01.007Z,1.50
2018-09-25T15:32:00.945Z,1.70
2018-09-25T15:33:00.903Z,1.70
2018-09-25T15:34:00.860Z,1.50
2018-09-25T15:35:00.896Z,1.70
2018-09-25T15:36:00.789Z,1.60
2018-09-25T15:37:00.746Z,1.60
2018-09-25T15:38:00.718Z,1.40
2018-09-25T15:39:00.672Z,1.40
2018-09-25T15:40:00.644Z,1.90
2018-09-25T15:41:00.608Z,1.60
2018-09-25T15:42:00.561Z,1.80
2018-09-25T15:43:00.507Z,1.60
2018-09-25T15:44:00.482Z,1.70
2018-09-25T15:45:00.433Z,1.40
2018-09-25T15:46:00.396Z,1.70
2018-09-25T15:47:00.344Z,1.70
2018-09-25T15:48:00.359Z,1.60
2018-09-25T15:49:00.279Z,1.60
2018-09-25T15:50:00.234Z,1.60
2018-09-25T15:51:00.209Z,1.60
2018-09-25T15:52:00.162Z,1.50
2018-09-25T15:53:00.132Z,1.40
2018-09-25T15:54:00.088Z,1.60
2018-09-25T15:55:00.042Z,1.70
2018-09-25T15:56:00.000Z,1.60
2018-09-25T15:57:00.023Z,1.70
2018-09-25T15:57:59.921Z,1.70
2018-09-25T15:58:59.883Z,1.80
2018-09-25T15:59:59.849Z,1.60
2018-09-25T16:00:59.800Z,1.60
2018-09-25T16:01:59.758Z,1.40
2018-09-25T16:02:59.745Z,1.50
2018-09-25T16:03:59.674Z,1.90
2018-09-25T16:04:59.652Z,1.50
2018-09-25T16:05:59.594Z,1.50
2018-09-25T16:06:59.560Z,1.80
2018-09-25T16:07:59.524Z,1.90
2018-09-25T16:08:59.489Z,1.60
2018-09-25T16:09:59.456Z,1.40
2018-09-25T16:10:59.416Z,1.70
2018-09-25T16:11:59.373Z,1.70
2018-09-25T16:12:59.327Z,1.50
2018-09-25T16:13:59.303Z,1.40
2018-09-25T16:14:59.251Z,1.70
2018-09-25T16:15:59.232Z,1.50
2018-09-25T16:16:59.156Z,1.30
2018-09-25T16:17:59.138Z,1.40
2018-09-25T16:18:59.084Z,1.40
2018-09-25T16:19:59.047Z,1.40
2018-09-25T16:20:59.034Z,1.80
2018-09-25T16:21:58.998Z,1.50
2018-09-25T16:22:58.925Z,1.40
2018-09-25T16:23:59.021Z,1.50
2018-09-25T16:24:58.841Z,1.40
2018-09-25T16:25:58.811Z,1.70
2018-09-25T16:26:58.797Z,1.50
2018-09-25T16:27:58.719Z,1.80
2018-09-25T16:28:58.708Z,1.90
2018-09-25T16:29:58.647Z,1.70
2018-09-25T16:30:58.601Z,1.40
2018-09-25T16:31:58.564Z,1.30
2018-09-25T16:32:58.520Z,1.60
2018-09-25T16:33:58.488Z,1.50
2018-09-25T16:34:58.442Z,1.30
2018-09-25T16:35:58.419Z,1.30
2018-09-25T16:36:58.504Z,2.10
2018-09-25T16:37:58.333Z,1.50
2018-09-25T16:38:58.317Z,1.40
2018-09-25T16:39:58.262Z,1.20
2018-09-25T16:40:58.208Z,1.80
2018-09-25T16:41:58.173Z,1.40
2018-09-25T16:42:58.157Z,1.90
2018-09-25T16:43:58.100Z,1.20
2018-09-25T16:44:58.060Z,1.60
2018-09-25T16:45:58.010Z,1.70
2018-09-25T16:46:58.005Z,1.60
2018-09-25T16:47:57.959Z,1.50
2018-09-25T16:48:57.890Z,1.80
2018-09-25T16:49:57.853Z,1.70
2018-09-25T16:50:57.821Z,1.70
2018-09-25T16:51:57.769Z,1.20
2018-09-25T16:52:57.724Z,1.30
2018-09-25T16:53:57.748Z,1.60
2018-09-25T16:54:57.650Z,1.30
2018-09-25T16:55:57.619Z,1.50
2018-09-25T16:56:57.566Z,1.10
2018-09-25T16:57:57.525Z,1.30
2018-09-25T16:58:57.478Z,1.50
2018-09-25T16:59:57.462Z,1.50
2018-09-25T17:00:57.418Z,1.60
2018-09-25T17:01:57.381Z,1.40
2018-09-25T17:02:57.340Z,1.50
2018-09-25T17:03:57.311Z,1.40
2018-09-25T17:04:57.257Z,1.50
2018-09-25T17:05:57.259Z,1.60
2018-09-25T17:06:57.169Z,1.50
2018-09-25T17:07:57.149Z,1.80
2018-09-25T17:08:57.097Z,1.60
2018-09-25T17:09:58.261Z,1.50
2018-09-25T17:10:57.028Z,1.60
2018-09-25T17:11:56.959Z,1.80
2018-09-25T17:12:56.958Z,2.20
2018-09-25T17:13:56.896Z,3.40
2018-09-25T17:14:56.855Z,2.60
2018-09-25T17:15:56.796Z,3.00
2018-09-25T17:16:56.750Z,4.10
2018-09-25T17:17:56.736Z,3.30
2018-09-25T17:18:56.696Z,2.30
2018-09-25T17:19:56.656Z,2.00
2018-09-25T17:20:56.602Z,2.70
2018-09-25T17:21:56.580Z,2.50
2018-09-25T17:22:56.509Z,3.30
2018-09-25T17:23:56.487Z,3.20
2018-09-25T17:24:56.442Z,3.00
2018-09-25T17:25:56.389Z,2.90
2018-09-25T17:26:56.358Z,2.80
2018-09-25T17:27:56.347Z,2.90
2018-09-25T17:28:56.272Z,3.10
2018-09-25T17:29:56.229Z,2.00
2018-09-25T17:30:56.180Z,2.10
2018-09-25T17:31:56.166Z,2.40
2018-09-25T17:32:56.116Z,2.30
2018-09-25T17:33:56.164Z,2.30
2018-09-25T17:34:56.043Z,2.30
2018-09-25T17:35:55.992Z,3.00
2018-09-25T17:36:55.951Z,2.50
2018-09-25T17:37:56.053Z,2.30
2018-09-25T17:38:55.958Z,2.10
2018-09-25T17:39:55.817Z,2.00
2018-09-25T17:40:55.785Z,2.10
2018-09-25T17:41:55.830Z,2.10
2018-09-25T17:42:55.841Z,2.10
2018-09-25T17:43:55.721Z,1.90
2018-09-25T17:44:55.646Z,2.00
2018-09-25T17:45:55.593Z,1.90
2018-09-25T17:46:55.550Z,2.90
2018-09-25T17:47:55.506Z,2.80
2018-09-25T17:48:55.444Z,2.90
2018-09-25T17:49:55.408Z,3.10
2018-09-25T17:50:55.376Z,3.90
2018-09-25T17:51:55.342Z,3.40
2018-09-25T17:52:55.328Z,3.00
2018-09-25T17:53:55.248Z,3.40
2018-09-25T17:54:55.202Z,3.00
2018-09-25T17:55:55.167Z,3.40
2018-09-25T17:56:55.137Z,3.10
2018-09-25T17:57:55.525Z,3.40
2018-09-25T17:58:55.029Z,3.40
2018-09-25T17:59:54.998Z,3.00
2018-09-25T18:00:54.997Z,2.80
2018-09-25T18:01:55.060Z,2.90
2018-09-25T18:02:54.967Z,3.00
2018-09-25T18:03:54.982Z,3.80
2018-09-25T18:04:54.840Z,3.40
2018-09-25T18:05:54.767Z,3.20
2018-09-25T18:06:54.755Z,3.40
2018-09-25T18:07:54.709Z,2.50
2018-09-25T18:08:54.677Z,3.00
2018-09-25T18:09:54.662Z,2.80
2018-09-25T18:10:54.593Z,3.10
2018-09-25T18:11:54.514Z,3.40
2018-09-25T18:12:54.444Z,3.00
2018-09-25T18:13:54.474Z,3.00
2018-09-25T18:14:54.375Z,3.00
2018-09-25T18:15:54.329Z,2.60
2018-09-25T18:16:54.306Z,2.30
2018-09-25T18:17:54.269Z,2.50
2018-09-25T18:18:54.216Z,2.80
2018-09-25T18:19:54.162Z,2.50
2018-09-25T18:20:54.135Z,2.80
2018-09-25T18:21:54.113Z,2.70
2018-09-25T18:22:54.070Z,2.50
2018-09-25T18:23:54.012Z,2.30
2018-09-25T18:24:53.967Z,2.60
2018-09-25T18:25:53.939Z,3.00
2018-09-25T18:26:53.890Z,5.40
2018-09-25T18:27:53.899Z,2.70
2018-09-25T18:28:53.798Z,3.20
2018-09-25T18:29:53.756Z,3.00
2018-09-25T18:30:53.707Z,3.40
2018-09-25T18:31:53.689Z,3.30
2018-09-25T18:32:53.637Z,3.30
2018-09-25T18:33:53.574Z,3.30
2018-09-25T18:34:53.553Z,2.70
2018-09-25T18:35:53.498Z,3.10
2018-09-25T18:36:53.468Z,3.30
2018-09-25T18:37:53.404Z,3.30
2018-09-25T18:38:53.383Z,2.80
2018-09-25T18:40:08.904Z,3.20
2018-09-25T18:40:53.291Z,2.80
2018-09-25T18:41:53.311Z,2.90
2018-09-25T18:42:53.218Z,2.90
2018-09-25T18:43:53.150Z,3.10
2018-09-25T18:44:53.144Z,3.20
2018-09-25T18:45:53.092Z,3.20
2018-09-25T18:46:53.026Z,3.00
2018-09-25T18:47:52.995Z,2.40
2018-09-25T18:48:53.088Z,2.60
2018-09-25T18:49:52.922Z,2.40
2018-09-25T18:50:52.902Z,2.30
2018-09-25T18:51:52.830Z,2.10
2018-09-25T18:52:52.798Z,2.00
2018-09-25T18:53:52.752Z,1.90
2018-09-25T18:54:52.693Z,2.40
2018-09-25T18:55:52.645Z,2.70
2018-09-25T18:56:52.611Z,3.00
2018-09-25T18:57:52.570Z,3.30
2018-09-25T18:58:53.085Z,2.60
2018-09-25T18:59:52.484Z,2.70
2018-09-25T19:00:52.432Z,2.30
2018-09-25T19:01:52.385Z,2.30
2018-09-25T19:02:52.364Z,2.50
2018-09-25T19:03:52.302Z,2.50
2018-09-25T19:04:52.337Z,2.60
2018-09-25T19:05:52.216Z,2.60
2018-09-25T19:06:52.242Z,2.30
2018-09-25T19:07:52.134Z,2.90
2018-09-25T19:08:52.099Z,2.90
2018-09-25T19:09:52.062Z,2.40
2018-09-25T19:10:52.014Z,2.60
2018-09-25T19:11:51.969Z,2.40
2018-09-25T19:12:51.938Z,2.70
2018-09-25T19:13:51.885Z,2.70
2018-09-25T19:14:51.832Z,2.80
2018-09-25T19:15:51.808Z,2.60
2018-09-25T19:16:51.745Z,2.70
2018-09-25T19:17:51.731Z,3.20
2018-09-25T19:18:51.671Z,3.70
2018-09-25T19:19:51.675Z,3.60
2018-09-25T19:20:51.586Z,3.10
2018-09-25T19:21:51.557Z,4.20
2018-09-25T19:22:51.498Z,4.00
2018-09-25T19:23:51.454Z,4.30
2018-09-25T19:24:51.412Z,2.60
2018-09-25T19:25:51.365Z,2.70
2018-09-25T19:26:51.312Z,2.50
2018-09-25T19:27:51.428Z,2.50
2018-09-25T19:28:51.237Z,2.60
2018-09-25T19:29:51.189Z,2.80
2018-09-25T19:30:51.145Z,2.80
2018-09-25T19:31:51.116Z,3.20
2018-09-25T19:32:51.079Z,3.50
2018-09-25T19:33:51.040Z,3.90
2018-09-25T19:34:50.971Z,3.70
2018-09-25T19:35:50.946Z,4.40
2018-09-25T19:36:50.897Z,3.90
2018-09-25T19:37:50.854Z,4.10
2018-09-25T19:38:50.816Z,3.70
2018-09-25T19:39:50.774Z,3.10
2018-09-25T19:40:50.739Z,3.50
2018-09-25T19:41:50.666Z,3.60
2018-09-25T19:42:50.635Z,3.50
2018-09-25T19:43:50.597Z,3.10
2018-09-25T19:44:50.630Z,3.40
2018-09-25T19:45:50.506Z,3.60
2018-09-25T19:46:50.451Z,3.40
2018-09-25T19:47:50.419Z,3.60
2018-09-25T19:48:50.379Z,3.80
2018-09-25T19:49:50.337Z,3.70
2018-09-25T19:50:50.281Z,3.60
2018-09-25T19:51:50.238Z,3.80
2018-09-25T19:52:50.192Z,3.40
2018-09-25T19:53:50.174Z,3.50
2018-09-25T19:54:50.145Z,3.40
2018-09-25T19:55:50.070Z,3.40
2018-09-25T19:56:50.291Z,3.60
2018-09-25T19:57:50.070Z,3.30
2018-09-25T19:58:49.955Z,2.90